Terminal Aerodrome Forecast
Issued by NWS Raleigh/Durham, NC

Home | Current Version | Previous Version | Text Only | Print | Product List | Glossary On
Versions: 1 2 3 4 5 6 7 8 9 10 11 12 13 14 15 16 17 18 19
000
FTUS42 KRAH 231734 AAC
TAFFAY
TAF AMD
KFAY 231734Z 2318/2418 24016G32KT P6SM SCT030
     FM232300 26010G19KT P6SM SKC
     FM240200 26007KT P6SM SKC
     FM241100 00000KT P6SM SKC
     FM241600 32008KT P6SM FEW250=

USA.gov is the U.S. government's official web portal to all federal, state and local government web resources and services.